createdAt,value
2018-02-09T00:01:30.060Z,7.51
2018-02-09T00:03:56.452Z,7.41
2018-02-09T00:06:22.877Z,7.54
2018-02-09T00:08:49.368Z,7.54
2018-02-09T00:11:16.127Z,7.51
2018-02-09T00:13:42.645Z,7.35
2018-02-09T00:16:09.037Z,7.37
2018-02-09T00:18:35.744Z,7.36
2018-02-09T00:21:02.133Z,7.38
2018-02-09T00:23:28.600Z,7.36
2018-02-09T00:25:55.242Z,7.36
2018-02-09T00:28:21.775Z,7.37
2018-02-09T00:30:48.209Z,7.30
2018-02-09T00:33:14.730Z,7.31
2018-02-09T00:35:41.419Z,7.27
2018-02-09T00:38:07.917Z,7.14
2018-02-09T00:40:34.556Z,7.29
2018-02-09T00:43:01.194Z,7.29
2018-02-09T00:45:27.832Z,7.18
2018-02-09T00:47:54.264Z,7.17
2018-02-09T00:50:20.680Z,7.21
2018-02-09T00:52:47.165Z,7.28
2018-02-09T00:55:13.615Z,7.28
2018-02-09T00:57:40.101Z,7.24
2018-02-09T01:00:06.721Z,7.27
2018-02-09T01:02:33.361Z,6.98
2018-02-09T01:04:59.912Z,7.17
2018-02-09T01:07:26.340Z,7.14
2018-02-09T01:09:52.865Z,7.13
2018-02-09T01:12:19.507Z,7.17
2018-02-09T01:14:45.917Z,7.16
2018-02-09T01:17:12.477Z,7.04
2018-02-09T01:19:38.853Z,6.98
2018-02-09T01:22:05.355Z,6.90
2018-02-09T01:24:32.049Z,6.97
2018-02-09T01:26:58.450Z,6.97
2018-02-09T01:29:24.962Z,6.64
2018-02-09T01:31:51.502Z,6.71
2018-02-09T01:34:17.934Z,6.92
2018-02-09T01:36:44.353Z,6.86
2018-02-09T01:39:10.900Z,6.94
2018-02-09T01:41:37.436Z,6.91
2018-02-09T01:44:03.972Z,6.91
2018-02-09T01:46:30.388Z,6.90
2018-02-09T01:48:57.043Z,6.84
2018-02-09T01:51:23.886Z,6.86
2018-02-09T01:53:50.306Z,6.91
2018-02-09T01:56:16.753Z,6.73
2018-02-09T01:58:43.392Z,6.89
2018-02-09T02:01:09.909Z,6.89
2018-02-09T02:03:36.462Z,6.94
2018-02-09T02:06:02.965Z,6.87
2018-02-09T02:08:29.413Z,6.71
2018-02-09T02:10:55.969Z,6.81
2018-02-09T02:13:22.720Z,6.79
2018-02-09T02:15:49.184Z,6.85
2018-02-09T02:18:15.797Z,6.85
2018-02-09T02:20:42.296Z,6.71
2018-02-09T02:23:08.968Z,6.68
2018-02-09T02:25:35.370Z,6.69
2018-02-09T02:28:01.704Z,6.71
2018-02-09T02:30:28.102Z,6.62
2018-02-09T02:32:54.456Z,6.79
2018-02-09T02:35:21.020Z,6.85
2018-02-09T02:37:47.401Z,6.80
2018-02-09T02:40:13.757Z,6.62
2018-02-09T02:42:40.090Z,6.67
2018-02-09T02:45:06.477Z,6.68
2018-02-09T02:47:32.819Z,6.64
2018-02-09T02:49:59.180Z,6.54
2018-02-09T02:52:25.576Z,6.42
2018-02-09T02:54:51.908Z,6.56
2018-02-09T02:57:18.241Z,6.51
2018-02-09T02:59:44.664Z,6.35
2018-02-09T03:02:11.026Z,6.40
2018-02-09T03:04:37.372Z,6.51
2018-02-09T03:07:03.745Z,6.55
2018-02-09T03:09:30.085Z,6.53
2018-02-09T03:11:56.465Z,6.37
2018-02-09T03:14:22.842Z,6.36
2018-02-09T03:16:49.208Z,6.25
2018-02-09T03:19:15.664Z,6.38
2018-02-09T03:21:42.044Z,6.65
2018-02-09T03:24:08.372Z,6.56
2018-02-09T03:26:34.705Z,6.37
2018-02-09T03:29:01.115Z,6.29
2018-02-09T03:31:27.432Z,6.33
2018-02-09T03:33:53.776Z,6.29
2018-02-09T03:36:20.124Z,6.21
2018-02-09T03:38:46.468Z,6.20
2018-02-09T03:41:12.805Z,6.21
2018-02-09T03:43:39.362Z,6.26
2018-02-09T03:46:05.733Z,6.21
2018-02-09T03:48:32.065Z,6.23
2018-02-09T03:50:58.420Z,6.09
2018-02-09T03:53:24.812Z,6.21
2018-02-09T03:55:51.141Z,6.08
2018-02-09T03:58:17.476Z,6.24
2018-02-09T04:00:44.032Z,6.10
2018-02-09T04:03:10.348Z,6.21
2018-02-09T04:05:36.692Z,6.23
2018-02-09T04:08:03.033Z,6.15
2018-02-09T04:10:29.356Z,6.02
2018-02-09T04:12:55.772Z,5.99
2018-02-09T04:15:22.177Z,6.12
2018-02-09T04:17:48.552Z,6.08
2018-02-09T04:20:15.089Z,6.08
2018-02-09T04:22:41.405Z,6.00
2018-02-09T04:25:07.756Z,6.03
2018-02-09T04:27:34.137Z,5.96
2018-02-09T04:30:00.473Z,6.09
2018-02-09T04:32:26.820Z,6.11
2018-02-09T04:34:53.328Z,6.04
2018-02-09T04:37:19.683Z,6.02
2018-02-09T04:39:46.017Z,6.03
2018-02-09T04:42:12.380Z,6.06
2018-02-09T04:44:38.688Z,6.00
2018-02-09T04:47:05.012Z,5.80
2018-02-09T04:49:31.396Z,5.98
2018-02-09T04:51:57.730Z,5.92
2018-02-09T04:54:24.072Z,6.09
2018-02-09T04:56:50.720Z,6.00
2018-02-09T04:59:17.068Z,6.11
2018-02-09T05:01:43.404Z,6.17
2018-02-09T05:04:09.804Z,6.13
2018-02-09T05:06:36.141Z,6.14
2018-02-09T05:09:02.569Z,6.02
2018-02-09T05:11:28.975Z,6.03
2018-02-09T05:13:55.292Z,5.72
2018-02-09T05:16:21.619Z,5.73
2018-02-09T05:18:48.004Z,5.50
2018-02-09T05:21:14.333Z,5.67
2018-02-09T05:23:40.685Z,5.75
2018-02-09T05:26:07.374Z,5.90
2018-02-09T05:28:33.736Z,6.00
2018-02-09T05:31:00.117Z,6.04
2018-02-09T05:33:26.485Z,6.08
2018-02-09T05:35:52.848Z,5.86
2018-02-09T05:38:19.188Z,6.00
2018-02-09T05:40:45.588Z,6.01
2018-02-09T05:43:11.926Z,6.04
2018-02-09T05:45:38.252Z,6.05
2018-02-09T05:48:04.669Z,5.96
2018-02-09T05:50:31.025Z,5.84
2018-02-09T05:52:57.383Z,6.08
2018-02-09T05:55:23.734Z,6.06
2018-02-09T05:57:50.110Z,6.00
2018-02-09T06:00:16.461Z,5.98
2018-02-09T06:02:42.808Z,6.02
2018-02-09T06:05:09.237Z,6.10
2018-02-09T06:07:35.568Z,6.11
2018-02-09T06:10:02.073Z,5.99
2018-02-09T06:12:28.820Z,5.97
2018-02-09T06:14:55.349Z,6.12
2018-02-09T06:17:21.942Z,6.14
2018-02-09T06:19:48.331Z,6.13
2018-02-09T06:22:14.690Z,6.15
2018-02-09T06:24:41.376Z,6.03
2018-02-09T06:27:08.008Z,6.12
2018-02-09T06:29:34.356Z,6.26
2018-02-09T06:32:00.762Z,6.17
2018-02-09T06:34:27.117Z,6.18
2018-02-09T06:36:53.473Z,6.31
2018-02-09T06:39:19.916Z,6.22
2018-02-09T06:41:46.276Z,6.30
2018-02-09T06:44:12.657Z,6.44
2018-02-09T06:46:39.173Z,6.49
2018-02-09T06:49:05.573Z,6.62
2018-02-09T06:51:32.191Z,6.64
2018-02-09T06:53:58.560Z,6.46
2018-02-09T06:56:24.896Z,6.60
2018-02-09T06:58:51.225Z,6.72
2018-02-09T07:01:17.632Z,6.79
2018-02-09T07:03:43.976Z,6.95
2018-02-09T07:06:10.298Z,6.99
2018-02-09T07:08:36.649Z,7.14
2018-02-09T07:11:02.984Z,7.19
2018-02-09T07:13:29.369Z,7.28
2018-02-09T07:15:55.745Z,7.36
2018-02-09T07:18:22.109Z,7.42
2018-02-09T07:20:48.624Z,7.49
2018-02-09T07:23:14.981Z,7.54
2018-02-09T07:25:41.334Z,7.62
2018-02-09T07:28:08.157Z,7.72
2018-02-09T07:30:34.504Z,7.80
2018-02-09T07:33:00.868Z,7.88
2018-02-09T07:35:27.249Z,7.93
2018-02-09T07:37:53.600Z,8.00
2018-02-09T07:40:19.955Z,8.11
2018-02-09T07:42:46.327Z,8.20
2018-02-09T07:45:12.673Z,8.30
2018-02-09T07:47:39.065Z,8.37
2018-02-09T07:50:05.417Z,8.48
2018-02-09T07:52:31.831Z,8.56
2018-02-09T07:54:58.196Z,8.64
2018-02-09T07:57:24.600Z,8.67
2018-02-09T07:59:50.945Z,8.79
2018-02-09T08:02:17.344Z,8.91
2018-02-09T08:04:43.705Z,9.00
2018-02-09T08:07:10.069Z,9.14
2018-02-09T08:09:36.603Z,9.27
2018-02-09T08:12:02.961Z,9.67
2018-02-09T08:14:29.312Z,9.82
2018-02-09T08:16:55.693Z,10.01
2018-02-09T08:19:22.072Z,10.34
2018-02-09T08:21:48.708Z,10.52
2018-02-09T08:24:15.113Z,10.71
2018-02-09T08:26:41.448Z,10.83
2018-02-09T08:29:07.776Z,11.03
2018-02-09T08:31:34.172Z,11.10
2018-02-09T08:34:00.501Z,11.17
2018-02-09T08:36:26.880Z,11.10
2018-02-09T08:38:53.506Z,11.10
2018-02-09T08:41:19.865Z,11.04
2018-02-09T08:43:46.220Z,11.08
2018-02-09T08:46:12.617Z,11.01
2018-02-09T08:48:39.037Z,11.20
2018-02-09T08:51:05.381Z,11.37
2018-02-09T08:53:31.925Z,11.47
2018-02-09T08:55:58.448Z,11.56
2018-02-09T08:58:25.018Z,11.45
2018-02-09T09:00:51.857Z,11.41
2018-02-09T09:03:18.820Z,11.49
2018-02-09T09:05:45.542Z,11.70
2018-02-09T09:08:12.240Z,11.72
2018-02-09T09:10:39.981Z,11.83
2018-02-09T09:13:06.840Z,11.90
2018-02-09T09:15:33.649Z,11.81
2018-02-09T09:18:00.366Z,11.80
2018-02-09T09:20:26.915Z,11.90
2018-02-09T09:22:53.672Z,11.84
2018-02-09T09:25:20.300Z,11.89
2018-02-09T09:27:47.007Z,11.89
2018-02-09T09:30:13.608Z,11.89
2018-02-09T09:32:40.174Z,12.08
2018-02-09T09:35:06.680Z,12.12
2018-02-09T09:37:35.830Z,12.17
2018-02-09T09:40:02.634Z,12.20
2018-02-09T09:42:30.357Z,12.28
2018-02-09T09:44:57.078Z,12.26
2018-02-09T09:47:23.632Z,12.19
2018-02-09T09:49:52.393Z,12.27
2018-02-09T09:52:20.714Z,12.19
2018-02-09T09:54:47.573Z,12.38
2018-02-09T09:57:14.262Z,12.45
2018-02-09T09:59:41.159Z,12.36
2018-02-09T10:02:07.812Z,12.55
2018-02-09T10:04:34.663Z,12.52
2018-02-09T10:07:01.289Z,12.56
2018-02-09T10:09:28.112Z,12.58
2018-02-09T10:11:54.827Z,12.58
2018-02-09T10:14:22.177Z,12.50
2018-02-09T10:16:48.784Z,12.60
2018-02-09T10:19:15.434Z,12.58
2018-02-09T10:21:42.847Z,12.71
2018-02-09T10:24:09.782Z,12.75
2018-02-09T10:26:36.303Z,12.66
2018-02-09T10:29:03.008Z,12.75
2018-02-09T10:31:30.062Z,12.79
2018-02-09T10:34:00.551Z,12.81
2018-02-09T10:36:27.442Z,12.85
2018-02-09T10:38:54.155Z,12.83
2018-02-09T10:41:20.841Z,12.80
2018-02-09T10:43:47.686Z,12.86
2018-02-09T10:46:14.525Z,12.86
2018-02-09T10:48:41.414Z,12.79
2018-02-09T10:53:41.986Z,12.82
2018-02-09T10:56:08.638Z,12.86
2018-02-09T10:58:35.376Z,12.94
2018-02-09T11:01:02.758Z,13.05
2018-02-09T11:03:29.818Z,13.05
2018-02-09T11:05:57.044Z,13.22
2018-02-09T11:08:24.146Z,13.16
2018-02-09T11:10:51.368Z,13.16
2018-02-09T11:13:19.351Z,13.14
2018-02-09T11:15:46.249Z,13.31
2018-02-09T11:18:13.831Z,13.29
2018-02-09T11:20:41.326Z,13.34
2018-02-09T11:23:08.222Z,13.38
2018-02-09T11:25:35.184Z,13.42
2018-02-09T11:28:01.916Z,13.40
2018-02-09T11:33:02.164Z,13.28
2018-02-09T11:35:28.991Z,13.27
2018-02-09T11:37:56.122Z,13.20
2018-02-09T11:40:23.138Z,13.24
2018-02-09T11:42:50.080Z,13.28
2018-02-09T11:45:17.007Z,13.40
2018-02-09T11:47:43.692Z,13.49
2018-02-09T11:50:10.491Z,13.47
2018-02-09T11:52:37.235Z,13.48
2018-02-09T11:55:04.875Z,13.47
2018-02-09T11:57:32.351Z,13.41
2018-02-09T12:00:00.300Z,13.46
2018-02-09T12:02:27.061Z,13.37
2018-02-09T12:04:53.712Z,13.29
2018-02-09T12:07:20.311Z,13.33
2018-02-09T12:09:47.036Z,13.39
2018-02-09T12:12:14.056Z,13.46
2018-02-09T12:14:40.962Z,13.55
2018-02-09T12:17:07.596Z,13.56
2018-02-09T12:19:34.580Z,13.50
2018-02-09T12:22:01.478Z,13.47
2018-02-09T12:24:28.300Z,13.46
2018-02-09T12:26:55.162Z,13.55
2018-02-09T12:29:22.076Z,13.67
2018-02-09T12:31:48.748Z,13.70
2018-02-09T12:34:15.772Z,13.65
2018-02-09T12:36:42.435Z,13.57
2018-02-09T12:39:09.198Z,13.55
2018-02-09T12:41:35.909Z,13.60
2018-02-09T12:44:02.772Z,13.59
2018-02-09T12:46:29.771Z,13.58
2018-02-09T12:48:56.464Z,13.65
2018-02-09T12:51:23.148Z,13.59
2018-02-09T12:53:50.198Z,13.68
2018-02-09T12:56:16.885Z,13.49
2018-02-09T12:58:43.745Z,13.49
2018-02-09T13:01:10.712Z,13.55
2018-02-09T13:03:37.603Z,13.59
2018-02-09T13:06:05.876Z,13.56
2018-02-09T13:11:06.511Z,13.55
2018-02-09T13:13:33.410Z,13.55
2018-02-09T13:16:00.201Z,13.47
2018-02-09T13:18:39.334Z,13.43
2018-02-09T13:21:06.087Z,13.56
2018-02-09T13:23:45.047Z,13.45
2018-02-09T13:26:11.823Z,13.57
2018-02-09T13:28:50.991Z,13.51
2018-02-09T13:31:17.866Z,13.59
2018-02-09T13:33:44.752Z,13.50
2018-02-09T13:36:14.709Z,13.47
2018-02-09T13:38:41.871Z,13.50
2018-02-09T13:41:08.488Z,13.52
2018-02-09T13:43:35.433Z,13.48
2018-02-09T13:46:04.086Z,13.36
2018-02-09T13:48:31.233Z,13.34
2018-02-09T13:50:58.335Z,13.29
2018-02-09T13:53:26.184Z,13.28
2018-02-09T13:55:54.032Z,13.30
2018-02-09T13:58:21.143Z,13.29
2018-02-09T14:00:48.932Z,13.21
2018-02-09T14:03:15.683Z,13.17
2018-02-09T14:05:42.399Z,13.26
2018-02-09T14:08:09.007Z,13.30
2018-02-09T14:10:35.895Z,13.27
2018-02-09T14:13:02.657Z,13.27
2018-02-09T14:15:29.353Z,13.26
2018-02-09T14:17:56.241Z,13.26
2018-02-09T14:20:22.984Z,13.18
2018-02-09T14:22:53.678Z,13.15
2018-02-09T14:25:21.240Z,13.21
2018-02-09T14:27:48.385Z,13.12
2018-02-09T14:30:15.975Z,13.14
2018-02-09T14:32:42.672Z,13.08
2018-02-09T14:35:10.318Z,13.16
2018-02-09T14:37:38.013Z,13.05
2018-02-09T14:40:04.931Z,13.09
2018-02-09T14:42:31.827Z,13.08
2018-02-09T14:44:58.624Z,13.04
2018-02-09T14:47:25.254Z,13.06
2018-02-09T14:49:52.023Z,12.95
2018-02-09T14:52:18.631Z,13.10
2018-02-09T14:54:45.310Z,13.08
2018-02-09T14:57:12.164Z,13.09
2018-02-09T14:59:42.186Z,13.11
2018-02-09T15:02:09.386Z,13.14
2018-02-09T15:04:37.518Z,13.10
2018-02-09T15:07:06.041Z,13.03
2018-02-09T15:09:33.599Z,12.95
2018-02-09T15:12:01.518Z,12.91
2018-02-09T15:14:28.018Z,12.80
2018-02-09T15:16:54.665Z,12.90
2018-02-09T15:19:21.365Z,12.92
2018-02-09T15:21:47.737Z,12.77
2018-02-09T15:24:14.201Z,12.88
2018-02-09T15:26:40.612Z,12.89
2018-02-09T15:29:06.965Z,12.82
2018-02-09T15:31:33.348Z,12.81
2018-02-09T15:33:59.764Z,12.83
2018-02-09T15:36:26.256Z,12.80
2018-02-09T15:38:52.690Z,12.86
2018-02-09T15:41:19.080Z,12.82
2018-02-09T15:43:45.497Z,12.78
2018-02-09T15:46:11.870Z,12.77
2018-02-09T15:48:38.452Z,12.73
2018-02-09T15:51:04.928Z,12.69
2018-02-09T15:53:31.517Z,12.66
2018-02-09T15:55:57.974Z,12.58
2018-02-09T15:58:24.375Z,12.56
2018-02-09T16:00:50.767Z,12.49
2018-02-09T16:03:17.169Z,12.45
2018-02-09T16:05:43.672Z,12.41
2018-02-09T16:08:10.125Z,12.36
2018-02-09T16:10:37.396Z,12.33
2018-02-09T16:13:03.848Z,12.32
2018-02-09T16:15:30.213Z,12.28
2018-02-09T16:17:56.734Z,12.25
2018-02-09T16:20:23.093Z,12.24
2018-02-09T16:22:49.501Z,12.23
2018-02-09T16:25:15.922Z,12.19
2018-02-09T16:27:42.377Z,12.19
2018-02-09T16:30:08.757Z,12.17
2018-02-09T16:32:35.196Z,12.13
2018-02-09T16:35:01.620Z,12.11
2018-02-09T16:37:27.996Z,12.10
2018-02-09T16:39:54.392Z,12.08
2018-02-09T16:42:20.753Z,12.07
2018-02-09T16:44:47.182Z,12.04
2018-02-09T16:47:13.585Z,12.04
2018-02-09T16:49:40.000Z,12.04
2018-02-09T16:52:06.457Z,12.03
2018-02-09T16:54:32.885Z,12.04
2018-02-09T16:56:59.273Z,12.02
2018-02-09T16:59:25.696Z,12.01
2018-02-09T17:01:52.234Z,11.99
2018-02-09T17:04:18.628Z,12.01
2018-02-09T17:06:45.000Z,12.01
2018-02-09T17:09:11.461Z,12.00
2018-02-09T17:11:37.872Z,11.99
2018-02-09T17:14:04.261Z,11.97
2018-02-09T17:16:30.749Z,11.95
2018-02-09T17:18:57.153Z,11.93
2018-02-09T17:21:23.539Z,11.92
2018-02-09T17:23:49.932Z,11.90
2018-02-09T17:26:16.316Z,11.91
2018-02-09T17:28:42.794Z,11.89
2018-02-09T17:31:09.211Z,11.88
2018-02-09T17:33:35.655Z,11.87
2018-02-09T17:36:02.156Z,11.85
2018-02-09T17:38:28.511Z,11.84
2018-02-09T17:40:54.865Z,11.82
2018-02-09T17:43:21.351Z,11.78
2018-02-09T17:45:47.730Z,11.73
2018-02-09T17:48:14.156Z,11.73
2018-02-09T17:50:40.525Z,11.72
2018-02-09T17:53:07.004Z,11.71
2018-02-09T17:55:33.391Z,11.71
2018-02-09T17:58:00.623Z,11.72
2018-02-09T18:00:27.028Z,11.69
2018-02-09T18:02:53.420Z,11.70
2018-02-09T18:05:19.846Z,11.69
2018-02-09T18:07:46.216Z,11.66
2018-02-09T18:10:12.577Z,11.64
2018-02-09T18:12:39.057Z,11.63
2018-02-09T18:15:05.515Z,11.62
2018-02-09T18:17:31.924Z,11.61
2018-02-09T18:19:58.405Z,11.60
2018-02-09T18:22:24.752Z,11.58
2018-02-09T18:24:51.917Z,11.54
2018-02-09T18:27:18.367Z,11.53
2018-02-09T18:29:44.748Z,11.37
2018-02-09T18:32:11.120Z,11.30
2018-02-09T18:34:37.595Z,11.40
2018-02-09T18:37:03.997Z,11.43
2018-02-09T18:39:30.362Z,11.51
2018-02-09T18:41:56.724Z,11.54
2018-02-09T18:44:23.102Z,11.44
2018-02-09T18:46:49.495Z,11.42
2018-02-09T18:49:15.921Z,11.46
2018-02-09T18:51:43.243Z,11.46
2018-02-09T18:54:09.609Z,11.44
2018-02-09T18:56:35.980Z,11.45
2018-02-09T18:59:02.362Z,11.48
2018-02-09T19:01:28.771Z,11.50
2018-02-09T19:03:55.782Z,11.48
2018-02-09T19:06:22.180Z,11.47
2018-02-09T19:08:48.842Z,11.46
2018-02-09T19:11:15.306Z,11.47
2018-02-09T19:13:41.685Z,11.45
2018-02-09T19:16:08.066Z,11.45
2018-02-09T19:18:34.581Z,11.42
2018-02-09T19:21:00.989Z,11.43
2018-02-09T19:23:28.816Z,11.40
2018-02-09T19:25:55.233Z,11.38
2018-02-09T19:28:21.600Z,11.37
2018-02-09T19:30:47.998Z,11.33
2018-02-09T19:33:14.437Z,11.35
2018-02-09T19:35:40.805Z,11.29
2018-02-09T19:38:07.206Z,11.29
2018-02-09T19:40:34.329Z,11.22
2018-02-09T19:43:00.824Z,11.23
2018-02-09T19:45:27.640Z,11.20
2018-02-09T19:47:54.006Z,11.13
2018-02-09T19:50:20.378Z,11.12
2018-02-09T19:52:46.858Z,11.05
2018-02-09T19:55:13.352Z,11.07
2018-02-09T19:57:39.708Z,11.17
2018-02-09T20:00:06.118Z,11.01
2018-02-09T20:02:32.548Z,11.09
2018-02-09T20:04:58.920Z,11.06
2018-02-09T20:07:25.320Z,11.07
2018-02-09T20:09:51.684Z,10.91
2018-02-09T20:12:18.081Z,10.98
2018-02-09T20:14:44.482Z,11.08
2018-02-09T20:17:10.846Z,11.12
2018-02-09T20:19:37.265Z,11.14
2018-02-09T20:22:03.765Z,11.13
2018-02-09T20:24:30.180Z,11.12
2018-02-09T20:26:57.194Z,11.10
2018-02-09T20:29:23.582Z,11.11
2018-02-09T20:31:49.980Z,11.09
2018-02-09T20:34:16.397Z,11.10
2018-02-09T20:36:42.759Z,11.10
2018-02-09T20:39:09.113Z,11.06
2018-02-09T20:41:35.465Z,10.99
2018-02-09T20:44:01.851Z,10.97
2018-02-09T20:46:28.310Z,10.87
2018-02-09T20:48:54.726Z,10.88
2018-02-09T20:51:21.258Z,10.95
2018-02-09T20:53:47.657Z,10.76
2018-02-09T20:56:14.123Z,10.86
2018-02-09T20:58:40.493Z,10.69
2018-02-09T21:01:06.871Z,10.72
2018-02-09T21:03:33.304Z,10.79
2018-02-09T21:06:00.245Z,10.77
2018-02-09T21:08:27.316Z,10.80
2018-02-09T21:10:53.815Z,10.74
2018-02-09T21:13:20.201Z,10.73
2018-02-09T21:15:46.566Z,10.78
2018-02-09T21:18:12.959Z,10.77
2018-02-09T21:20:39.328Z,10.77
2018-02-09T21:23:05.694Z,10.80
2018-02-09T21:25:32.099Z,10.69
2018-02-09T21:27:58.456Z,10.72
2018-02-09T21:30:24.818Z,10.55
2018-02-09T21:32:51.196Z,10.60
2018-02-09T21:35:17.565Z,10.51
2018-02-09T21:37:43.965Z,10.57
2018-02-09T21:40:10.338Z,10.54
2018-02-09T21:42:36.681Z,10.50
2018-02-09T21:45:03.120Z,10.48
2018-02-09T21:47:29.493Z,10.49
2018-02-09T21:49:55.852Z,10.48
2018-02-09T21:52:22.253Z,10.46
2018-02-09T21:54:48.618Z,10.38
2018-02-09T21:57:14.961Z,10.38
2018-02-09T21:59:41.367Z,10.29
2018-02-09T22:02:07.756Z,10.33
2018-02-09T22:04:34.161Z,10.28
2018-02-09T22:07:00.617Z,10.13
2018-02-09T22:09:29.177Z,10.20
2018-02-09T22:11:56.509Z,10.14
2018-02-09T22:14:24.406Z,10.14
2018-02-09T22:16:51.648Z,10.15
2018-02-09T22:19:18.221Z,10.18
2018-02-09T22:21:45.552Z,10.19
2018-02-09T22:24:13.386Z,10.19
2018-02-09T22:26:39.744Z,10.15
2018-02-09T22:29:06.121Z,10.20
2018-02-09T22:31:32.560Z,10.22
2018-02-09T22:33:58.977Z,10.25
2018-02-09T22:36:25.347Z,10.33
2018-02-09T22:38:51.738Z,10.29
2018-02-09T22:41:18.094Z,10.24
2018-02-09T22:43:44.496Z,10.36
2018-02-09T22:46:10.848Z,10.33
2018-02-09T22:48:38.209Z,10.38
2018-02-09T22:51:07.102Z,10.32
2018-02-09T22:53:34.697Z,10.43
2018-02-09T22:56:01.739Z,10.34
2018-02-09T22:58:28.187Z,10.35
2018-02-09T23:00:54.890Z,10.28
2018-02-09T23:03:22.262Z,10.26
2018-02-09T23:05:48.835Z,10.28
2018-02-09T23:08:15.312Z,10.32
2018-02-09T23:10:41.764Z,10.29
2018-02-09T23:13:08.164Z,10.33
2018-02-09T23:15:34.608Z,10.33
2018-02-09T23:18:01.084Z,10.29
2018-02-09T23:20:27.711Z,10.29
2018-02-09T23:22:56.238Z,10.16
2018-02-09T23:25:24.333Z,9.98
2018-02-09T23:27:50.778Z,9.97
2018-02-09T23:30:21.332Z,9.93
2018-02-09T23:32:48.713Z,10.10
2018-02-09T23:35:15.067Z,9.85
2018-02-09T23:37:41.474Z,9.86
2018-02-09T23:40:07.829Z,9.90
2018-02-09T23:42:34.196Z,9.85
2018-02-09T23:45:00.746Z,9.90
2018-02-09T23:47:27.114Z,9.67
2018-02-09T23:49:55.983Z,9.41
2018-02-09T23:52:22.424Z,9.43
2018-02-09T23:54:49.339Z,9.36
2018-02-09T23:57:21.037Z,9.48
2018-02-09T23:59:49.946Z,9.48
